sensor_id;sensor_type;location;lat;lon;timestamp;temperature;humidity
48208;DHT22;33997;53.278;9.708;2022-08-06T00:00:53;10.50;96.70
48208;DHT22;33997;53.278;9.708;2022-08-06T00:03:18;10.50;96.80
48208;DHT22;33997;53.278;9.708;2022-08-06T00:05:44;10.50;96.60
48208;DHT22;33997;53.278;9.708;2022-08-06T00:08:09;10.50;96.70
48208;DHT22;33997;53.278;9.708;2022-08-06T00:10:35;10.50;96.70
48208;DHT22;33997;53.278;9.708;2022-08-06T00:13:01;10.50;96.70
48208;DHT22;33997;53.278;9.708;2022-08-06T00:15:27;10.40;96.70
48208;DHT22;33997;53.278;9.708;2022-08-06T00:17:52;10.50;97.00
48208;DHT22;33997;53.278;9.708;2022-08-06T00:20:18;10.50;97.00
48208;DHT22;33997;53.278;9.708;2022-08-06T00:22:43;10.50;96.90
48208;DHT22;33997;53.278;9.708;2022-08-06T00:25:09;10.50;97.00
48208;DHT22;33997;53.278;9.708;2022-08-06T00:27:38;10.50;96.90
48208;DHT22;33997;53.278;9.708;2022-08-06T00:30:08;10.40;96.80
48208;DHT22;33997;53.278;9.708;2022-08-06T00:32:34;10.50;97.00
48208;DHT22;33997;53.278;9.708;2022-08-06T00:34:59;10.40;97.00
48208;DHT22;33997;53.278;9.708;2022-08-06T00:37:25;10.30;96.80
48208;DHT22;33997;53.278;9.708;2022-08-06T00:39:54;10.30;96.80
48208;DHT22;33997;53.278;9.708;2022-08-06T00:42:20;10.30;97.00
48208;DHT22;33997;53.278;9.708;2022-08-06T00:44:45;10.30;96.90
48208;DHT22;33997;53.278;9.708;2022-08-06T00:47:11;10.30;97.00
48208;DHT22;33997;53.278;9.708;2022-08-06T00:49:36;10.30;97.20
48208;DHT22;33997;53.278;9.708;2022-08-06T00:52:02;10.30;97.10
48208;DHT22;33997;53.278;9.708;2022-08-06T00:54:27;10.30;97.10
48208;DHT22;33997;53.278;9.708;2022-08-06T00:56:53;10.30;97.20
48208;DHT22;33997;53.278;9.708;2022-08-06T00:59:18;10.30;97.20
48208;DHT22;33997;53.278;9.708;2022-08-06T01:01:44;10.30;97.20
48208;DHT22;33997;53.278;9.708;2022-08-06T01:04:09;10.30;97.20
48208;DHT22;33997;53.278;9.708;2022-08-06T01:06:35;10.40;97.30
48208;DHT22;33997;53.278;9.708;2022-08-06T01:09:00;10.40;97.30
48208;DHT22;33997;53.278;9.708;2022-08-06T01:11:26;10.50;97.30
48208;DHT22;33997;53.278;9.708;2022-08-06T01:13:51;10.60;97.30
48208;DHT22;33997;53.278;9.708;2022-08-06T01:30:14;10.60;96.90
48208;DHT22;33997;53.278;9.708;2022-08-06T01:32:47;10.70;96.90
48208;DHT22;33997;53.278;9.708;2022-08-06T01:35:21;10.60;96.80
48208;DHT22;33997;53.278;9.708;2022-08-06T01:38:03;10.60;96.70
48208;DHT22;33997;53.278;9.708;2022-08-06T01:40:33;10.60;96.70
48208;DHT22;33997;53.278;9.708;2022-08-06T01:43:00;10.60;96.70
48208;DHT22;33997;53.278;9.708;2022-08-06T01:45:29;10.50;96.70
48208;DHT22;33997;53.278;9.708;2022-08-06T01:47:59;10.50;96.70
48208;DHT22;33997;53.278;9.708;2022-08-06T01:50:34;10.50;96.70
48208;DHT22;33997;53.278;9.708;2022-08-06T01:53:02;10.50;96.80
48208;DHT22;33997;53.278;9.708;2022-08-06T01:55:32;10.40;96.80
48208;DHT22;33997;53.278;9.708;2022-08-06T01:58:01;10.40;96.90
48208;DHT22;33997;53.278;9.708;2022-08-06T02:00:28;10.40;97.00
48208;DHT22;33997;53.278;9.708;2022-08-06T02:02:56;10.40;96.90
48208;DHT22;33997;53.278;9.708;2022-08-06T02:05:23;10.40;97.00
48208;DHT22;33997;53.278;9.708;2022-08-06T02:07:51;10.50;97.00
48208;DHT22;33997;53.278;9.708;2022-08-06T02:10:19;10.50;97.10
48208;DHT22;33997;53.278;9.708;2022-08-06T02:12:48;10.50;97.00
48208;DHT22;33997;53.278;9.708;2022-08-06T02:15:18;10.50;96.90
48208;DHT22;33997;53.278;9.708;2022-08-06T02:17:54;10.50;96.90
48208;DHT22;33997;53.278;9.708;2022-08-06T02:20:26;10.40;96.90
48208;DHT22;33997;53.278;9.708;2022-08-06T02:22:53;10.40;97.00
48208;DHT22;33997;53.278;9.708;2022-08-06T02:25:20;10.30;96.90
48208;DHT22;33997;53.278;9.708;2022-08-06T02:27:49;10.30;97.00
48208;DHT22;33997;53.278;9.708;2022-08-06T02:30:16;10.20;97.00
48208;DHT22;33997;53.278;9.708;2022-08-06T02:32:42;10.20;97.10
48208;DHT22;33997;53.278;9.708;2022-08-06T02:35:09;10.20;97.20
48208;DHT22;33997;53.278;9.708;2022-08-06T02:37:50;10.20;97.20
48208;DHT22;33997;53.278;9.708;2022-08-06T02:40:23;10.10;97.20
48208;DHT22;33997;53.278;9.708;2022-08-06T02:42:55;10.10;97.30
48208;DHT22;33997;53.278;9.708;2022-08-06T02:45:38;10.00;97.30
48208;DHT22;33997;53.278;9.708;2022-08-06T02:50:43;10.00;97.40
48208;DHT22;33997;53.278;9.708;2022-08-06T02:53:15;10.10;97.50
48208;DHT22;33997;53.278;9.708;2022-08-06T02:55:48;10.10;97.60
48208;DHT22;33997;53.278;9.708;2022-08-06T02:58:25;10.00;97.50
48208;DHT22;33997;53.278;9.708;2022-08-06T03:00:52;9.90;97.50
48208;DHT22;33997;53.278;9.708;2022-08-06T03:03:21;9.90;97.60
48208;DHT22;33997;53.278;9.708;2022-08-06T03:05:49;9.90;97.70
48208;DHT22;33997;53.278;9.708;2022-08-06T03:08:18;9.90;97.70
48208;DHT22;33997;53.278;9.708;2022-08-06T03:10:46;9.90;97.80
48208;DHT22;33997;53.278;9.708;2022-08-06T03:13:13;9.90;97.90
48208;DHT22;33997;53.278;9.708;2022-08-06T03:15:39;9.90;97.90
48208;DHT22;33997;53.278;9.708;2022-08-06T03:18:05;9.90;97.90
48208;DHT22;33997;53.278;9.708;2022-08-06T03:20:32;9.90;98.00
48208;DHT22;33997;53.278;9.708;2022-08-06T03:23:01;10.00;98.00
48208;DHT22;33997;53.278;9.708;2022-08-06T03:25:28;9.90;98.00
48208;DHT22;33997;53.278;9.708;2022-08-06T03:27:55;9.90;98.00
48208;DHT22;33997;53.278;9.708;2022-08-06T03:30:22;9.90;98.00
48208;DHT22;33997;53.278;9.708;2022-08-06T03:32:49;9.90;98.00
48208;DHT22;33997;53.278;9.708;2022-08-06T03:35:15;9.80;97.90
48208;DHT22;33997;53.278;9.708;2022-08-06T03:37:43;9.80;98.00
48208;DHT22;33997;53.278;9.708;2022-08-06T03:40:10;9.80;98.00
48208;DHT22;33997;53.278;9.708;2022-08-06T03:42:37;9.80;98.00
48208;DHT22;33997;53.278;9.708;2022-08-06T03:45:03;9.80;98.00
48208;DHT22;33997;53.278;9.708;2022-08-06T03:47:31;9.80;98.00
48208;DHT22;33997;53.278;9.708;2022-08-06T03:50:19;9.80;98.10
48208;DHT22;33997;53.278;9.708;2022-08-06T03:52:52;9.70;98.10
48208;DHT22;33997;53.278;9.708;2022-08-06T03:55:22;9.70;98.10
48208;DHT22;33997;53.278;9.708;2022-08-06T03:57:50;9.70;98.10
48208;DHT22;33997;53.278;9.708;2022-08-06T04:00:20;9.60;98.00
48208;DHT22;33997;53.278;9.708;2022-08-06T04:02:48;9.50;97.90
48208;DHT22;33997;53.278;9.708;2022-08-06T04:05:18;9.50;97.90
48208;DHT22;33997;53.278;9.708;2022-08-06T04:07:44;9.40;97.90
48208;DHT22;33997;53.278;9.708;2022-08-06T04:10:10;9.40;97.90
48208;DHT22;33997;53.278;9.708;2022-08-06T04:12:36;9.40;97.90
48208;DHT22;33997;53.278;9.708;2022-08-06T04:15:04;9.30;97.90
48208;DHT22;33997;53.278;9.708;2022-08-06T04:17:31;9.40;97.90
48208;DHT22;33997;53.278;9.708;2022-08-06T04:19:58;9.40;97.90
48208;DHT22;33997;53.278;9.708;2022-08-06T04:22:24;9.40;97.90
48208;DHT22;33997;53.278;9.708;2022-08-06T04:24:50;9.50;98.10
48208;DHT22;33997;53.278;9.708;2022-08-06T04:27:16;9.50;98.10
48208;DHT22;33997;53.278;9.708;2022-08-06T04:29:44;9.60;98.20
48208;DHT22;33997;53.278;9.708;2022-08-06T04:32:14;9.70;98.20
48208;DHT22;33997;53.278;9.708;2022-08-06T04:34:42;9.80;98.20
48208;DHT22;33997;53.278;9.708;2022-08-06T04:37:08;9.80;98.30
48208;DHT22;33997;53.278;9.708;2022-08-06T04:39:35;9.80;98.20
48208;DHT22;33997;53.278;9.708;2022-08-06T04:42:01;9.90;98.30
48208;DHT22;33997;53.278;9.708;2022-08-06T04:44:27;9.90;98.30
48208;DHT22;33997;53.278;9.708;2022-08-06T04:46:54;10.00;98.40
48208;DHT22;33997;53.278;9.708;2022-08-06T04:49:20;10.00;98.30
48208;DHT22;33997;53.278;9.708;2022-08-06T04:51:49;10.10;98.30
48208;DHT22;33997;53.278;9.708;2022-08-06T04:54:15;10.10;98.30
48208;DHT22;33997;53.278;9.708;2022-08-06T04:56:41;10.20;98.40
48208;DHT22;33997;53.278;9.708;2022-08-06T04:59:07;10.20;98.30
48208;DHT22;33997;53.278;9.708;2022-08-06T05:01:33;10.30;98.30
48208;DHT22;33997;53.278;9.708;2022-08-06T05:03:59;10.30;98.20
48208;DHT22;33997;53.278;9.708;2022-08-06T05:08:58;10.30;98.10
48208;DHT22;33997;53.278;9.708;2022-08-06T05:11:31;10.40;98.10
48208;DHT22;33997;53.278;9.708;2022-08-06T05:14:02;10.50;98.10
48208;DHT22;33997;53.278;9.708;2022-08-06T05:16:33;10.50;97.90
48208;DHT22;33997;53.278;9.708;2022-08-06T05:19:07;10.50;97.90
48208;DHT22;33997;53.278;9.708;2022-08-06T05:21:36;10.60;97.90
48208;DHT22;33997;53.278;9.708;2022-08-06T05:24:03;10.60;97.80
48208;DHT22;33997;53.278;9.708;2022-08-06T05:26:29;10.70;97.80
48208;DHT22;33997;53.278;9.708;2022-08-06T05:28:55;10.70;97.80
48208;DHT22;33997;53.278;9.708;2022-08-06T05:31:34;10.80;97.80
48208;DHT22;33997;53.278;9.708;2022-08-06T05:34:01;10.90;97.80
48208;DHT22;33997;53.278;9.708;2022-08-06T05:36:26;11.00;97.70
48208;DHT22;33997;53.278;9.708;2022-08-06T05:38:55;11.10;97.60
48208;DHT22;33997;53.278;9.708;2022-08-06T05:41:20;11.10;97.50
48208;DHT22;33997;53.278;9.708;2022-08-06T05:43:47;11.20;97.40
48208;DHT22;33997;53.278;9.708;2022-08-06T05:46:18;11.30;97.30
48208;DHT22;33997;53.278;9.708;2022-08-06T05:49:00;11.40;97.30
48208;DHT22;33997;53.278;9.708;2022-08-06T05:51:50;11.50;97.30
48208;DHT22;33997;53.278;9.708;2022-08-06T05:54:30;11.70;97.20
48208;DHT22;33997;53.278;9.708;2022-08-06T05:57:05;11.70;96.90
48208;DHT22;33997;53.278;9.708;2022-08-06T05:59:35;11.90;96.60
48208;DHT22;33997;53.278;9.708;2022-08-06T06:02:03;12.00;96.20
48208;DHT22;33997;53.278;9.708;2022-08-06T06:04:31;12.10;95.90
48208;DHT22;33997;53.278;9.708;2022-08-06T06:06:57;12.30;95.50
48208;DHT22;33997;53.278;9.708;2022-08-06T06:09:23;12.40;95.30
48208;DHT22;33997;53.278;9.708;2022-08-06T06:11:50;12.60;94.50
48208;DHT22;33997;53.278;9.708;2022-08-06T06:14:27;12.70;94.20
48208;DHT22;33997;53.278;9.708;2022-08-06T06:19:53;13.00;93.40
48208;DHT22;33997;53.278;9.708;2022-08-06T06:22:33;13.10;92.80
48208;DHT22;33997;53.278;9.708;2022-08-06T06:25:17;13.30;92.50
48208;DHT22;33997;53.278;9.708;2022-08-06T06:30:48;13.60;91.60
48208;DHT22;33997;53.278;9.708;2022-08-06T06:33:34;13.60;91.40
48208;DHT22;33997;53.278;9.708;2022-08-06T06:36:05;13.80;91.40
48208;DHT22;33997;53.278;9.708;2022-08-06T06:43:53;14.40;88.50
48208;DHT22;33997;53.278;9.708;2022-08-06T06:46:27;14.50;88.60
48208;DHT22;33997;53.278;9.708;2022-08-06T06:48:56;14.60;88.10
48208;DHT22;33997;53.278;9.708;2022-08-06T06:51:32;14.60;87.80
48208;DHT22;33997;53.278;9.708;2022-08-06T06:53:58;15.00;87.20
48208;DHT22;33997;53.278;9.708;2022-08-06T06:56:29;15.00;86.50
48208;DHT22;33997;53.278;9.708;2022-08-06T06:59:02;15.10;85.40
48208;DHT22;33997;53.278;9.708;2022-08-06T07:01:30;15.20;85.80
48208;DHT22;33997;53.278;9.708;2022-08-06T07:04:00;15.30;85.40
48208;DHT22;33997;53.278;9.708;2022-08-06T07:06:28;15.50;85.10
48208;DHT22;33997;53.278;9.708;2022-08-06T07:08:57;15.60;83.40
48208;DHT22;33997;53.278;9.708;2022-08-06T07:11:24;15.70;83.40
48208;DHT22;33997;53.278;9.708;2022-08-06T07:13:52;15.60;82.20
48208;DHT22;33997;53.278;9.708;2022-08-06T07:16:20;15.80;82.50
48208;DHT22;33997;53.278;9.708;2022-08-06T07:18:47;15.90;82.70
48208;DHT22;33997;53.278;9.708;2022-08-06T07:21:15;16.00;82.50
48208;DHT22;33997;53.278;9.708;2022-08-06T07:23:44;15.90;81.80
48208;DHT22;33997;53.278;9.708;2022-08-06T07:26:12;16.10;81.80
48208;DHT22;33997;53.278;9.708;2022-08-06T07:28:38;16.30;81.30
48208;DHT22;33997;53.278;9.708;2022-08-06T07:31:05;16.50;80.60
48208;DHT22;33997;53.278;9.708;2022-08-06T07:33:33;16.50;80.10
48208;DHT22;33997;53.278;9.708;2022-08-06T07:36:00;16.60;79.50
48208;DHT22;33997;53.278;9.708;2022-08-06T07:38:27;16.80;78.70
48208;DHT22;33997;53.278;9.708;2022-08-06T07:40:56;17.00;79.10
48208;DHT22;33997;53.278;9.708;2022-08-06T07:43:26;17.00;77.00
48208;DHT22;33997;53.278;9.708;2022-08-06T07:45:54;17.00;76.20
48208;DHT22;33997;53.278;9.708;2022-08-06T07:48:25;17.00;75.70
48208;DHT22;33997;53.278;9.708;2022-08-06T07:50:53;16.80;76.60
48208;DHT22;33997;53.278;9.708;2022-08-06T07:53:20;17.00;75.00
48208;DHT22;33997;53.278;9.708;2022-08-06T07:55:46;17.30;75.50
48208;DHT22;33997;53.278;9.708;2022-08-06T07:58:12;17.10;75.10
48208;DHT22;33997;53.278;9.708;2022-08-06T08:00:40;17.10;73.90
48208;DHT22;33997;53.278;9.708;2022-08-06T08:03:06;17.30;75.40
48208;DHT22;33997;53.278;9.708;2022-08-06T08:05:51;17.60;73.40
48208;DHT22;33997;53.278;9.708;2022-08-06T08:08:36;17.80;72.70
48208;DHT22;33997;53.278;9.708;2022-08-06T08:11:02;17.50;72.50
48208;DHT22;33997;53.278;9.708;2022-08-06T08:13:28;17.50;71.30
48208;DHT22;33997;53.278;9.708;2022-08-06T08:15:55;18.00;71.60
48208;DHT22;33997;53.278;9.708;2022-08-06T08:18:28;17.80;70.70
48208;DHT22;33997;53.278;9.708;2022-08-06T08:20:55;18.00;70.00
48208;DHT22;33997;53.278;9.708;2022-08-06T08:23:22;18.30;68.90
48208;DHT22;33997;53.278;9.708;2022-08-06T08:25:48;18.40;69.60
48208;DHT22;33997;53.278;9.708;2022-08-06T08:28:14;18.80;68.70
48208;DHT22;33997;53.278;9.708;2022-08-06T08:30:40;18.30;68.30
48208;DHT22;33997;53.278;9.708;2022-08-06T08:33:05;18.50;68.40
48208;DHT22;33997;53.278;9.708;2022-08-06T08:35:31;18.70;67.50
48208;DHT22;33997;53.278;9.708;2022-08-06T08:37:57;18.00;66.40
48208;DHT22;33997;53.278;9.708;2022-08-06T08:40:23;17.80;67.50
48208;DHT22;33997;53.278;9.708;2022-08-06T08:42:50;18.20;67.50
48208;DHT22;33997;53.278;9.708;2022-08-06T08:45:19;18.60;65.30
48208;DHT22;33997;53.278;9.708;2022-08-06T08:47:49;18.30;64.60
48208;DHT22;33997;53.278;9.708;2022-08-06T08:50:16;18.60;64.60
48208;DHT22;33997;53.278;9.708;2022-08-06T08:52:44;19.10;63.30
48208;DHT22;33997;53.278;9.708;2022-08-06T08:55:12;19.20;62.70
48208;DHT22;33997;53.278;9.708;2022-08-06T08:57:41;19.60;62.70
48208;DHT22;33997;53.278;9.708;2022-08-06T09:00:08;18.70;62.70
48208;DHT22;33997;53.278;9.708;2022-08-06T09:02:34;18.90;63.50
48208;DHT22;33997;53.278;9.708;2022-08-06T09:05:01;19.40;62.20
48208;DHT22;33997;53.278;9.708;2022-08-06T09:07:28;19.50;61.20
48208;DHT22;33997;53.278;9.708;2022-08-06T09:09:54;20.00;60.90
48208;DHT22;33997;53.278;9.708;2022-08-06T09:12:21;20.00;62.20
48208;DHT22;33997;53.278;9.708;2022-08-06T09:14:47;19.50;62.90
48208;DHT22;33997;53.278;9.708;2022-08-06T09:17:13;18.90;59.30
48208;DHT22;33997;53.278;9.708;2022-08-06T09:19:38;18.80;61.80
48208;DHT22;33997;53.278;9.708;2022-08-06T09:22:04;19.30;63.50
48208;DHT22;33997;53.278;9.708;2022-08-06T09:24:29;19.80;62.20
48208;DHT22;33997;53.278;9.708;2022-08-06T09:27:06;19.20;61.80
48208;DHT22;33997;53.278;9.708;2022-08-06T09:29:33;18.90;63.50
48208;DHT22;33997;53.278;9.708;2022-08-06T09:32:00;19.30;61.70
48208;DHT22;33997;53.278;9.708;2022-08-06T09:34:39;19.50;59.60
48208;DHT22;33997;53.278;9.708;2022-08-06T09:37:05;20.00;58.50
48208;DHT22;33997;53.278;9.708;2022-08-06T09:39:38;20.00;56.30
48208;DHT22;33997;53.278;9.708;2022-08-06T09:42:07;20.50;55.40
48208;DHT22;33997;53.278;9.708;2022-08-06T09:44:34;20.90;54.70
48208;DHT22;33997;53.278;9.708;2022-08-06T09:47:00;20.50;56.70
48208;DHT22;33997;53.278;9.708;2022-08-06T09:49:27;20.20;54.90
48208;DHT22;33997;53.278;9.708;2022-08-06T09:52:12;20.10;55.40
48208;DHT22;33997;53.278;9.708;2022-08-06T09:54:38;20.50;54.90
48208;DHT22;33997;53.278;9.708;2022-08-06T09:57:04;20.10;56.30
48208;DHT22;33997;53.278;9.708;2022-08-06T09:59:41;19.80;58.20
48208;DHT22;33997;53.278;9.708;2022-08-06T10:02:13;19.50;59.20
48208;DHT22;33997;53.278;9.708;2022-08-06T10:04:39;19.20;60.00
48208;DHT22;33997;53.278;9.708;2022-08-06T10:07:04;18.90;60.40
48208;DHT22;33997;53.278;9.708;2022-08-06T10:09:30;18.60;61.10
48208;DHT22;33997;53.278;9.708;2022-08-06T10:11:58;18.60;62.50
48208;DHT22;33997;53.278;9.708;2022-08-06T10:14:32;19.00;62.90
48208;DHT22;33997;53.278;9.708;2022-08-06T10:17:09;19.90;61.50
48208;DHT22;33997;53.278;9.708;2022-08-06T10:19:36;20.30;59.20
48208;DHT22;33997;53.278;9.708;2022-08-06T10:22:13;20.50;57.80
48208;DHT22;33997;53.278;9.708;2022-08-06T10:24:45;20.40;56.40
48208;DHT22;33997;53.278;9.708;2022-08-06T10:27:14;20.40;54.60
48208;DHT22;33997;53.278;9.708;2022-08-06T10:29:44;20.10;54.80
48208;DHT22;33997;53.278;9.708;2022-08-06T10:32:20;20.00;56.80
48208;DHT22;33997;53.278;9.708;2022-08-06T10:34:49;20.40;54.80
48208;DHT22;33997;53.278;9.708;2022-08-06T10:37:17;21.00;55.50
48208;DHT22;33997;53.278;9.708;2022-08-06T10:39:47;21.60;53.60
48208;DHT22;33997;53.278;9.708;2022-08-06T10:42:15;22.00;52.90
48208;DHT22;33997;53.278;9.708;2022-08-06T10:44:41;21.90;50.70
48208;DHT22;33997;53.278;9.708;2022-08-06T10:47:07;21.70;51.60
48208;DHT22;33997;53.278;9.708;2022-08-06T10:49:33;22.20;49.70
48208;DHT22;33997;53.278;9.708;2022-08-06T10:51:59;22.20;50.20
48208;DHT22;33997;53.278;9.708;2022-08-06T10:54:26;22.40;51.10
48208;DHT22;33997;53.278;9.708;2022-08-06T10:56:53;22.50;50.20
48208;DHT22;33997;53.278;9.708;2022-08-06T10:59:22;22.00;52.10
48208;DHT22;33997;53.278;9.708;2022-08-06T11:04:38;20.80;54.60
48208;DHT22;33997;53.278;9.708;2022-08-06T11:15:23;21.70;52.20
48208;DHT22;33997;53.278;9.708;2022-08-06T11:17:54;21.80;52.10
48208;DHT22;33997;53.278;9.708;2022-08-06T11:23:22;22.00;50.80
48208;DHT22;33997;53.278;9.708;2022-08-06T11:25:56;22.70;48.70
48208;DHT22;33997;53.278;9.708;2022-08-06T11:30:58;22.70;50.70
48208;DHT22;33997;53.278;9.708;2022-08-06T11:36:06;21.80;50.60
48208;DHT22;33997;53.278;9.708;2022-08-06T11:41:28;21.00;53.80
48208;DHT22;33997;53.278;9.708;2022-08-06T11:46:28;20.50;53.40
48208;DHT22;33997;53.278;9.708;2022-08-06T11:52:01;19.70;55.30
48208;DHT22;33997;53.278;9.708;2022-08-06T12:02:10;20.10;54.90
48208;DHT22;33997;53.278;9.708;2022-08-06T12:07:24;20.90;53.70
48208;DHT22;33997;53.278;9.708;2022-08-06T12:10:07;21.50;51.20
48208;DHT22;33997;53.278;9.708;2022-08-06T12:12:41;22.20;49.60
48208;DHT22;33997;53.278;9.708;2022-08-06T12:20:32;23.80;46.80
48208;DHT22;33997;53.278;9.708;2022-08-06T12:22:59;22.70;46.20
48208;DHT22;33997;53.278;9.708;2022-08-06T12:25:32;21.70;48.70
48208;DHT22;33997;53.278;9.708;2022-08-06T12:27:58;21.00;49.50
48208;DHT22;33997;53.278;9.708;2022-08-06T12:30:24;21.00;49.50
48208;DHT22;33997;53.278;9.708;2022-08-06T12:33:01;20.70;48.50
48208;DHT22;33997;53.278;9.708;2022-08-06T12:35:27;21.30;48.00
48208;DHT22;33997;53.278;9.708;2022-08-06T12:37:53;21.30;46.90
48208;DHT22;33997;53.278;9.708;2022-08-06T12:40:20;21.00;47.40
48208;DHT22;33997;53.278;9.708;2022-08-06T12:42:49;20.70;51.00
48208;DHT22;33997;53.278;9.708;2022-08-06T12:45:20;20.70;50.10
48208;DHT22;33997;53.278;9.708;2022-08-06T12:48:05;20.60;50.90
48208;DHT22;33997;53.278;9.708;2022-08-06T12:50:33;20.60;51.90
48208;DHT22;33997;53.278;9.708;2022-08-06T12:53:10;20.90;50.10
48208;DHT22;33997;53.278;9.708;2022-08-06T12:55:50;22.50;46.60
48208;DHT22;33997;53.278;9.708;2022-08-06T12:58:30;23.40;45.30
48208;DHT22;33997;53.278;9.708;2022-08-06T13:00:58;23.80;41.90
48208;DHT22;33997;53.278;9.708;2022-08-06T13:03:24;24.60;42.30
48208;DHT22;33997;53.278;9.708;2022-08-06T13:05:54;25.30;39.20
48208;DHT22;33997;53.278;9.708;2022-08-06T13:08:21;25.50;41.00
48208;DHT22;33997;53.278;9.708;2022-08-06T13:10:50;25.90;37.60
48208;DHT22;33997;53.278;9.708;2022-08-06T13:13:17;25.50;38.30
48208;DHT22;33997;53.278;9.708;2022-08-06T13:15:43;26.40;37.30
48208;DHT22;33997;53.278;9.708;2022-08-06T13:18:23;26.40;37.30
48208;DHT22;33997;53.278;9.708;2022-08-06T13:20:49;24.10;42.30
48208;DHT22;33997;53.278;9.708;2022-08-06T13:23:33;24.00;42.90
48208;DHT22;33997;53.278;9.708;2022-08-06T13:26:17;23.70;43.50
48208;DHT22;33997;53.278;9.708;2022-08-06T13:31:36;22.80;43.40
48208;DHT22;33997;53.278;9.708;2022-08-06T13:34:08;23.60;41.30
48208;DHT22;33997;53.278;9.708;2022-08-06T13:36:39;23.90;40.10
48208;DHT22;33997;53.278;9.708;2022-08-06T13:39:26;24.60;39.80
48208;DHT22;33997;53.278;9.708;2022-08-06T13:42:08;25.50;37.80
48208;DHT22;33997;53.278;9.708;2022-08-06T13:44:39;25.20;38.40
48208;DHT22;33997;53.278;9.708;2022-08-06T13:47:05;25.30;37.60
48208;DHT22;33997;53.278;9.708;2022-08-06T13:49:31;25.50;39.60
48208;DHT22;33997;53.278;9.708;2022-08-06T13:51:57;26.70;37.70
48208;DHT22;33997;53.278;9.708;2022-08-06T13:54:24;26.70;36.60
48208;DHT22;33997;53.278;9.708;2022-08-06T13:56:51;27.50;36.80
48208;DHT22;33997;53.278;9.708;2022-08-06T13:59:17;27.40;36.00
48208;DHT22;33997;53.278;9.708;2022-08-06T14:01:43;25.90;36.30
48208;DHT22;33997;53.278;9.708;2022-08-06T14:04:09;25.60;35.00
48208;DHT22;33997;53.278;9.708;2022-08-06T14:06:34;26.10;35.50
48208;DHT22;33997;53.278;9.708;2022-08-06T14:09:00;24.70;36.90
48208;DHT22;33997;53.278;9.708;2022-08-06T14:11:25;25.80;34.60
48208;DHT22;33997;53.278;9.708;2022-08-06T14:13:51;25.50;34.30
48208;DHT22;33997;53.278;9.708;2022-08-06T14:16:16;25.50;34.20
48208;DHT22;33997;53.278;9.708;2022-08-06T14:18:42;25.60;35.00
48208;DHT22;33997;53.278;9.708;2022-08-06T14:21:07;26.00;35.10
48208;DHT22;33997;53.278;9.708;2022-08-06T14:23:33;26.40;37.00
48208;DHT22;33997;53.278;9.708;2022-08-06T14:25:59;26.80;35.60
48208;DHT22;33997;53.278;9.708;2022-08-06T14:28:26;27.10;34.80
48208;DHT22;33997;53.278;9.708;2022-08-06T14:30:52;26.50;34.50
48208;DHT22;33997;53.278;9.708;2022-08-06T14:33:17;25.20;37.40
48208;DHT22;33997;53.278;9.708;2022-08-06T14:35:43;24.00;37.80
48208;DHT22;33997;53.278;9.708;2022-08-06T14:38:09;22.70;40.50
48208;DHT22;33997;53.278;9.708;2022-08-06T14:40:36;22.70;41.50
48208;DHT22;33997;53.278;9.708;2022-08-06T14:43:20;22.50;40.80
48208;DHT22;33997;53.278;9.708;2022-08-06T14:46:04;22.50;41.40
48208;DHT22;33997;53.278;9.708;2022-08-06T14:48:30;23.60;41.10
48208;DHT22;33997;53.278;9.708;2022-08-06T14:50:55;25.00;37.40
48208;DHT22;33997;53.278;9.708;2022-08-06T14:53:21;25.40;36.20
48208;DHT22;33997;53.278;9.708;2022-08-06T14:55:46;25.50;35.90
48208;DHT22;33997;53.278;9.708;2022-08-06T14:58:12;25.50;35.20
48208;DHT22;33997;53.278;9.708;2022-08-06T15:00:38;26.10;35.10
48208;DHT22;33997;53.278;9.708;2022-08-06T15:03:04;26.30;34.70
48208;DHT22;33997;53.278;9.708;2022-08-06T15:05:30;26.30;33.90
48208;DHT22;33997;53.278;9.708;2022-08-06T15:07:56;26.80;33.20
48208;DHT22;33997;53.278;9.708;2022-08-06T15:10:21;27.80;34.00
48208;DHT22;33997;53.278;9.708;2022-08-06T15:12:47;27.70;36.00
48208;DHT22;33997;53.278;9.708;2022-08-06T15:15:12;27.60;33.90
48208;DHT22;33997;53.278;9.708;2022-08-06T15:17:38;26.90;33.80
48208;DHT22;33997;53.278;9.708;2022-08-06T15:20:04;27.80;35.10
48208;DHT22;33997;53.278;9.708;2022-08-06T15:22:29;28.40;33.90
48208;DHT22;33997;53.278;9.708;2022-08-06T15:24:55;28.30;31.90
48208;DHT22;33997;53.278;9.708;2022-08-06T15:27:20;26.40;34.30
48208;DHT22;33997;53.278;9.708;2022-08-06T15:29:46;26.10;35.90
48208;DHT22;33997;53.278;9.708;2022-08-06T15:32:12;27.50;32.10
48208;DHT22;33997;53.278;9.708;2022-08-06T15:34:37;28.20;32.70
48208;DHT22;33997;53.278;9.708;2022-08-06T15:37:03;29.20;34.60
48208;DHT22;33997;53.278;9.708;2022-08-06T15:39:31;27.50;33.20
48208;DHT22;33997;53.278;9.708;2022-08-06T15:41:57;27.10;33.80
48208;DHT22;33997;53.278;9.708;2022-08-06T15:44:23;27.00;34.50
48208;DHT22;33997;53.278;9.708;2022-08-06T15:46:48;28.00;35.00
48208;DHT22;33997;53.278;9.708;2022-08-06T15:49:14;28.20;33.40
48208;DHT22;33997;53.278;9.708;2022-08-06T15:51:39;29.40;35.60
48208;DHT22;33997;53.278;9.708;2022-08-06T15:54:05;29.60;32.70
48208;DHT22;33997;53.278;9.708;2022-08-06T15:56:30;28.80;31.60
48208;DHT22;33997;53.278;9.708;2022-08-06T15:58:56;27.30;34.00
48208;DHT22;33997;53.278;9.708;2022-08-06T16:01:22;27.50;33.40
48208;DHT22;33997;53.278;9.708;2022-08-06T16:06:13;26.30;34.20
48208;DHT22;33997;53.278;9.708;2022-08-06T16:08:39;26.60;33.70
48208;DHT22;33997;53.278;9.708;2022-08-06T16:11:05;25.80;35.50
48208;DHT22;33997;53.278;9.708;2022-08-06T16:13:31;25.50;37.20
48208;DHT22;33997;53.278;9.708;2022-08-06T16:15:56;25.40;37.10
48208;DHT22;33997;53.278;9.708;2022-08-06T16:18:22;25.30;36.90
48208;DHT22;33997;53.278;9.708;2022-08-06T16:20:49;25.50;37.20
48208;DHT22;33997;53.278;9.708;2022-08-06T16:23:16;25.20;37.00
48208;DHT22;33997;53.278;9.708;2022-08-06T16:25:42;25.10;37.70
48208;DHT22;33997;53.278;9.708;2022-08-06T16:28:09;25.10;37.90
48208;DHT22;33997;53.278;9.708;2022-08-06T16:30:35;25.10;37.60
48208;DHT22;33997;53.278;9.708;2022-08-06T16:33:02;25.50;38.00
48208;DHT22;33997;53.278;9.708;2022-08-06T16:35:28;25.40;37.20
48208;DHT22;33997;53.278;9.708;2022-08-06T16:37:54;24.80;38.40
48208;DHT22;33997;53.278;9.708;2022-08-06T16:40:20;24.90;38.90
48208;DHT22;33997;53.278;9.708;2022-08-06T16:42:47;23.60;40.50
48208;DHT22;33997;53.278;9.708;2022-08-06T16:45:12;22.80;43.00
48208;DHT22;33997;53.278;9.708;2022-08-06T16:47:39;22.20;44.20
48208;DHT22;33997;53.278;9.708;2022-08-06T16:50:05;21.90;46.00
48208;DHT22;33997;53.278;9.708;2022-08-06T16:52:31;22.00;45.50
48208;DHT22;33997;53.278;9.708;2022-08-06T16:54:56;22.80;44.10
48208;DHT22;33997;53.278;9.708;2022-08-06T16:57:22;23.50;44.00
48208;DHT22;33997;53.278;9.708;2022-08-06T16:59:47;23.30;42.80